createdAt,value
2023-03-30T00:01:05.233Z,12.80
2023-03-30T00:03:33.336Z,12.80
2023-03-30T00:06:05.312Z,12.80
2023-03-30T00:08:33.245Z,12.80
2023-03-30T00:11:13.309Z,12.80
2023-03-30T00:13:40.513Z,12.70
2023-03-30T00:16:11.349Z,12.70
2023-03-30T00:18:39.463Z,12.70
2023-03-30T00:21:09.481Z,12.70
2023-03-30T00:23:36.615Z,12.70
2023-03-30T00:26:04.124Z,12.70
2023-03-30T00:28:31.702Z,12.70
2023-03-30T00:30:58.876Z,12.70
2023-03-30T00:33:41.345Z,12.70
2023-03-30T00:36:12.567Z,12.70
2023-03-30T00:38:40.432Z,12.70
2023-03-30T00:41:07.747Z,12.70
2023-03-30T00:43:34.783Z,12.80
2023-03-30T00:46:01.959Z,12.80
2023-03-30T00:48:36.814Z,12.80
2023-03-30T00:51:09.751Z,12.80
2023-03-30T00:53:48.195Z,12.90
2023-03-30T00:56:19.908Z,12.90
2023-03-30T00:58:47.102Z,12.80
2023-03-30T01:01:18.899Z,12.90
2023-03-30T01:03:48.264Z,12.90
2023-03-30T01:06:18.052Z,12.90
2023-03-30T01:08:45.420Z,12.90
2023-03-30T01:11:12.471Z,12.90
2023-03-30T01:13:45.601Z,12.90
2023-03-30T01:16:41.714Z,12.90
2023-03-30T01:19:29.388Z,12.90
2023-03-30T01:22:41.381Z,12.90
2023-03-30T01:25:29.004Z,12.80
2023-03-30T01:28:44.346Z,12.80
2023-03-30T01:31:35.158Z,12.80
2023-03-30T01:35:02.436Z,12.90
2023-03-30T01:38:01.014Z,12.90
2023-03-30T01:40:43.087Z,12.90
2023-03-30T01:43:20.998Z,12.80
2023-03-30T01:45:57.429Z,12.90
2023-03-30T01:48:51.820Z,12.90
2023-03-30T01:51:24.050Z,12.80
2023-03-30T01:54:07.196Z,12.80
2023-03-30T01:56:47.153Z,12.90
2023-03-30T01:59:26.338Z,12.90
2023-03-30T02:02:02.669Z,12.80
2023-03-30T02:04:36.171Z,12.80
2023-03-30T02:07:10.221Z,12.80
2023-03-30T02:09:40.351Z,12.90
2023-03-30T02:12:10.426Z,12.80
2023-03-30T02:14:41.014Z,12.90
2023-03-30T02:17:19.703Z,12.90
2023-03-30T02:19:47.398Z,13.00
2023-03-30T02:22:18.499Z,13.00
2023-03-30T02:24:48.650Z,13.00
2023-03-30T02:27:17.905Z,13.00
2023-03-30T02:29:45.996Z,13.00
2023-03-30T02:32:52.812Z,13.00
2023-03-30T02:35:33.923Z,13.00
2023-03-30T02:38:34.322Z,13.10
2023-03-30T02:41:32.482Z,13.00
2023-03-30T02:44:31.905Z,13.10
2023-03-30T02:47:09.214Z,13.00
2023-03-30T02:50:02.422Z,13.00
2023-03-30T02:53:06.219Z,13.00
2023-03-30T02:56:03.978Z,13.00
2023-03-30T02:59:08.696Z,13.00
2023-03-30T03:01:59.251Z,12.90
2023-03-30T03:04:28.863Z,12.90
2023-03-30T03:07:14.701Z,12.90
2023-03-30T03:09:42.206Z,12.80
2023-03-30T03:12:09.584Z,12.80
2023-03-30T03:14:39.167Z,12.80
2023-03-30T03:17:06.465Z,12.70
2023-03-30T03:19:38.181Z,12.70
2023-03-30T03:22:05.680Z,12.70
2023-03-30T03:24:39.102Z,12.70
2023-03-30T03:27:30.131Z,12.70
2023-03-30T03:30:12.918Z,12.70
2023-03-30T03:32:45.980Z,12.70
2023-03-30T03:35:13.088Z,12.70
2023-03-30T03:37:40.006Z,12.70
2023-03-30T03:40:08.180Z,12.70
2023-03-30T03:42:35.964Z,12.60
2023-03-30T03:45:09.806Z,12.60
2023-03-30T03:47:47.443Z,12.60
2023-03-30T03:50:15.236Z,12.60
2023-03-30T03:52:42.140Z,12.60
2023-03-30T03:55:09.379Z,12.60
2023-03-30T03:57:39.348Z,12.60
2023-03-30T04:00:15.546Z,12.60
2023-03-30T04:02:45.581Z,12.60
2023-03-30T04:05:13.280Z,12.60
2023-03-30T04:07:40.341Z,12.60
2023-03-30T04:10:08.108Z,12.60
2023-03-30T04:12:41.940Z,12.60
2023-03-30T04:15:20.679Z,12.70
2023-03-30T04:18:02.053Z,12.70
2023-03-30T04:20:51.898Z,12.70
2023-03-30T04:23:35.694Z,12.70
2023-03-30T04:26:21.031Z,12.70
2023-03-30T04:28:47.936Z,12.80
2023-03-30T04:31:50.896Z,12.70
2023-03-30T04:34:48.549Z,12.80
2023-03-30T04:37:52.310Z,12.80
2023-03-30T04:40:30.938Z,12.90
2023-03-30T04:43:05.868Z,12.80
2023-03-30T04:46:01.859Z,12.90
2023-03-30T04:48:54.235Z,12.80
2023-03-30T04:51:39.612Z,12.80
2023-03-30T04:54:24.998Z,12.80
2023-03-30T04:57:14.085Z,12.90
2023-03-30T04:59:59.683Z,12.80
2023-03-30T05:02:52.592Z,12.80
2023-03-30T05:05:28.205Z,12.70
2023-03-30T05:08:13.374Z,12.70
2023-03-30T05:11:08.916Z,12.70
2023-03-30T05:13:57.049Z,12.70
2023-03-30T05:16:50.199Z,12.70
2023-03-30T05:19:43.491Z,12.70
2023-03-30T05:22:19.513Z,12.70
2023-03-30T05:24:54.672Z,12.70
2023-03-30T05:27:31.462Z,12.70
2023-03-30T05:30:16.787Z,12.60
2023-03-30T05:33:22.263Z,12.60
2023-03-30T05:36:18.769Z,12.60
2023-03-30T05:39:00.190Z,12.50
2023-03-30T05:41:50.801Z,12.50
2023-03-30T05:44:29.109Z,12.50
2023-03-30T05:47:18.808Z,12.50
2023-03-30T05:50:00.920Z,12.50
2023-03-30T05:52:48.044Z,12.40
2023-03-30T05:55:48.041Z,12.50
2023-03-30T05:58:33.645Z,12.50
2023-03-30T06:01:09.428Z,12.50
2023-03-30T06:03:40.059Z,12.50
2023-03-30T06:06:09.579Z,12.50
2023-03-30T06:08:37.832Z,12.50
2023-03-30T06:11:06.910Z,12.60
2023-03-30T06:13:54.214Z,12.60
2023-03-30T06:16:21.751Z,12.70
2023-03-30T06:18:48.761Z,12.70
2023-03-30T06:21:15.888Z,12.70
2023-03-30T06:24:01.451Z,12.80
2023-03-30T06:26:30.878Z,12.90
2023-03-30T06:28:57.821Z,12.90
2023-03-30T06:31:25.343Z,12.90
2023-03-30T06:34:05.274Z,12.90
2023-03-30T06:36:45.210Z,13.00
2023-03-30T06:39:14.387Z,13.10
2023-03-30T06:41:41.817Z,13.20
2023-03-30T06:44:22.605Z,13.20
2023-03-30T06:46:50.352Z,13.30
2023-03-30T06:49:17.356Z,13.30
2023-03-30T06:51:44.193Z,13.30
2023-03-30T06:54:11.939Z,13.40
2023-03-30T06:56:44.986Z,13.40
2023-03-30T06:59:15.660Z,13.40
2023-03-30T07:02:14.264Z,13.40
2023-03-30T07:04:58.030Z,13.50
2023-03-30T07:07:57.540Z,13.50
2023-03-30T07:10:25.770Z,13.50
2023-03-30T07:12:53.892Z,13.60
2023-03-30T07:15:24.365Z,13.60
2023-03-30T07:17:51.918Z,13.70
2023-03-30T07:20:20.372Z,13.70
2023-03-30T07:23:02.599Z,13.80
2023-03-30T07:25:30.056Z,13.90
2023-03-30T07:27:58.281Z,14.00
2023-03-30T07:30:26.129Z,14.10
2023-03-30T07:32:59.401Z,14.10
2023-03-30T07:35:27.065Z,14.30
2023-03-30T07:38:02.848Z,14.30
2023-03-30T07:40:34.761Z,14.30
2023-03-30T07:43:03.819Z,14.40
2023-03-30T07:45:31.262Z,14.40
2023-03-30T07:47:58.506Z,14.50
2023-03-30T07:50:25.735Z,14.50
2023-03-30T07:52:55.126Z,14.60
2023-03-30T07:55:22.482Z,14.70
2023-03-30T07:57:57.106Z,14.70
2023-03-30T08:00:24.824Z,14.80
2023-03-30T08:03:15.861Z,14.90
2023-03-30T08:05:43.844Z,15.00
2023-03-30T08:08:16.284Z,15.00
2023-03-30T08:10:43.217Z,15.10
2023-03-30T08:13:12.353Z,15.00
2023-03-30T08:15:39.837Z,15.00
2023-03-30T08:18:08.305Z,15.00
2023-03-30T08:20:37.874Z,15.00
2023-03-30T08:23:06.178Z,15.00
2023-03-30T08:25:33.448Z,15.00
2023-03-30T08:28:00.769Z,15.00
2023-03-30T08:30:28.345Z,15.00
2023-03-30T08:32:55.394Z,15.00
2023-03-30T08:35:22.406Z,15.00
2023-03-30T08:37:49.966Z,15.10
2023-03-30T08:40:22.376Z,15.10
2023-03-30T08:43:14.541Z,15.20
2023-03-30T08:45:42.982Z,15.30
2023-03-30T08:48:35.544Z,15.40
2023-03-30T08:51:22.884Z,15.60
2023-03-30T08:54:06.880Z,15.70
2023-03-30T08:56:49.761Z,15.90
2023-03-30T08:59:35.750Z,16.10
2023-03-30T09:02:28.783Z,16.20
2023-03-30T09:05:03.416Z,16.40
2023-03-30T09:07:52.394Z,16.50
2023-03-30T09:10:21.748Z,16.60
2023-03-30T09:12:52.801Z,16.80
2023-03-30T09:15:31.239Z,16.90
2023-03-30T09:18:31.456Z,16.90
2023-03-30T09:21:06.069Z,17.10
2023-03-30T09:23:34.288Z,17.10
2023-03-30T09:26:27.143Z,17.20
2023-03-30T09:29:19.245Z,17.20
2023-03-30T09:31:55.924Z,17.30
2023-03-30T09:34:39.111Z,17.30
2023-03-30T09:37:22.366Z,17.30
2023-03-30T09:39:50.819Z,17.40
2023-03-30T09:42:48.083Z,17.40
2023-03-30T09:45:20.478Z,17.50
2023-03-30T09:47:47.400Z,17.50
2023-03-30T09:50:23.232Z,17.50
2023-03-30T09:53:07.201Z,17.50
2023-03-30T09:55:35.894Z,17.60
2023-03-30T09:58:18.665Z,17.60
2023-03-30T10:00:46.972Z,17.60
2023-03-30T10:03:23.257Z,17.70
2023-03-30T10:06:16.144Z,17.70
2023-03-30T10:08:44.366Z,17.80
2023-03-30T10:11:11.588Z,17.70
2023-03-30T10:13:43.878Z,17.70
2023-03-30T10:16:28.170Z,17.70
2023-03-30T10:19:00.862Z,17.70
2023-03-30T10:21:37.738Z,17.70
2023-03-30T10:24:22.042Z,17.70
2023-03-30T10:27:17.070Z,17.70
2023-03-30T10:29:50.663Z,17.70
2023-03-30T10:32:32.156Z,17.60
2023-03-30T10:35:02.021Z,17.60
2023-03-30T10:37:43.257Z,17.60
2023-03-30T10:40:32.397Z,17.50
2023-03-30T10:43:01.035Z,17.50
2023-03-30T10:45:36.836Z,17.40
2023-03-30T10:48:27.512Z,17.40
2023-03-30T10:51:25.844Z,17.50
2023-03-30T10:54:18.310Z,17.50
2023-03-30T10:56:52.093Z,17.40
2023-03-30T10:59:58.609Z,17.40
2023-03-30T11:02:54.349Z,17.40
2023-03-30T11:05:32.522Z,17.40
2023-03-30T11:08:07.468Z,17.40
2023-03-30T11:10:44.091Z,17.40
2023-03-30T11:13:27.859Z,17.50
2023-03-30T11:16:07.185Z,17.60
2023-03-30T11:18:52.343Z,17.70
2023-03-30T11:21:33.514Z,17.80
2023-03-30T11:24:19.419Z,17.90
2023-03-30T11:27:07.091Z,18.10
2023-03-30T11:30:17.092Z,18.20
2023-03-30T11:32:53.652Z,18.40
2023-03-30T11:35:48.902Z,18.60
2023-03-30T11:38:21.958Z,18.80
2023-03-30T11:40:55.998Z,19.00
2023-03-30T11:43:24.184Z,19.20
2023-03-30T11:46:19.637Z,19.40
2023-03-30T11:49:30.325Z,19.50
2023-03-30T11:52:29.753Z,19.60
2023-03-30T11:55:47.414Z,19.70
2023-03-30T11:58:37.635Z,19.70
2023-03-30T12:01:33.490Z,19.80
2023-03-30T12:04:17.060Z,19.80
2023-03-30T12:07:01.768Z,19.90
2023-03-30T12:09:35.558Z,19.90
2023-03-30T12:12:20.752Z,19.90
2023-03-30T12:15:08.750Z,20.00
2023-03-30T12:18:14.422Z,20.10
2023-03-30T12:21:09.856Z,20.20
2023-03-30T12:24:29.616Z,20.30
2023-03-30T12:27:05.364Z,20.40
2023-03-30T12:32:29.514Z,20.60
2023-03-30T12:34:58.356Z,20.60
2023-03-30T12:37:35.505Z,20.70
2023-03-30T12:40:08.971Z,20.80
2023-03-30T12:42:46.843Z,20.80
2023-03-30T12:45:25.247Z,20.80
2023-03-30T12:48:17.195Z,20.90
2023-03-30T12:51:01.495Z,20.90
2023-03-30T12:54:10.843Z,20.90
2023-03-30T12:56:54.912Z,20.90
2023-03-30T12:59:58.818Z,20.80
2023-03-30T13:03:12.781Z,20.80
2023-03-30T13:05:43.839Z,20.70
2023-03-30T13:08:40.745Z,20.70
2023-03-30T13:11:17.691Z,20.60
2023-03-30T13:13:48.685Z,20.50
2023-03-30T13:16:52.103Z,20.50
2023-03-30T13:19:34.175Z,20.50
2023-03-30T13:22:12.875Z,20.50
2023-03-30T13:24:42.824Z,20.40
2023-03-30T13:27:18.809Z,20.30
2023-03-30T13:30:08.635Z,20.30
2023-03-30T13:32:40.297Z,20.30
2023-03-30T13:35:47.178Z,20.30
2023-03-30T13:38:57.599Z,20.30
2023-03-30T13:41:49.315Z,20.20
2023-03-30T13:44:41.617Z,20.20
2023-03-30T13:47:42.058Z,20.10
2023-03-30T13:50:31.220Z,20.10
2023-03-30T13:53:02.542Z,20.00
2023-03-30T13:55:35.803Z,20.00
2023-03-30T13:58:32.557Z,19.90
2023-03-30T14:01:10.649Z,19.80
2023-03-30T14:03:43.595Z,19.70
2023-03-30T14:06:13.526Z,19.70
2023-03-30T14:08:47.888Z,19.70
2023-03-30T14:11:40.320Z,19.60
2023-03-30T14:14:07.672Z,19.70
2023-03-30T14:16:38.913Z,19.60
2023-03-30T14:19:28.121Z,19.60
2023-03-30T14:22:04.703Z,19.60
2023-03-30T14:24:34.051Z,19.60
2023-03-30T14:27:15.622Z,19.60
2023-03-30T14:29:48.636Z,19.60
2023-03-30T14:32:19.541Z,19.60
2023-03-30T14:34:48.402Z,19.70
2023-03-30T14:37:15.604Z,19.70
2023-03-30T14:39:54.546Z,19.70
2023-03-30T14:42:25.167Z,19.70
2023-03-30T14:44:55.890Z,19.70
2023-03-30T14:47:26.545Z,19.70
2023-03-30T14:49:58.023Z,19.80
2023-03-30T14:52:39.885Z,19.80
2023-03-30T14:55:13.769Z,19.80
2023-03-30T14:57:44.363Z,19.90
2023-03-30T15:00:21.194Z,19.90
2023-03-30T15:03:01.204Z,20.00
2023-03-30T15:05:40.519Z,20.00
2023-03-30T15:08:21.007Z,20.00
2023-03-30T15:10:58.768Z,20.00
2023-03-30T15:13:40.379Z,20.00
2023-03-30T15:16:08.075Z,20.00
2023-03-30T15:18:37.253Z,20.00
2023-03-30T15:21:04.445Z,20.00
2023-03-30T15:23:40.995Z,20.00
2023-03-30T15:26:08.662Z,20.10
2023-03-30T15:28:48.701Z,20.00
2023-03-30T15:31:16.556Z,20.00
2023-03-30T15:33:52.305Z,20.00
2023-03-30T15:36:25.735Z,19.90
2023-03-30T15:38:58.794Z,19.80
2023-03-30T15:41:56.804Z,19.60
2023-03-30T15:44:24.209Z,19.30
2023-03-30T15:46:55.657Z,19.00
2023-03-30T15:49:31.239Z,18.80
2023-03-30T15:52:02.071Z,18.50
2023-03-30T15:54:52.085Z,18.20
2023-03-30T15:57:25.170Z,18.00
2023-03-30T16:00:01.357Z,17.80
2023-03-30T16:02:47.564Z,17.60
2023-03-30T16:05:22.892Z,17.50
2023-03-30T16:07:49.874Z,17.40
2023-03-30T16:10:24.739Z,17.40
2023-03-30T16:12:53.732Z,17.30
2023-03-30T16:15:27.312Z,17.30
2023-03-30T16:17:54.272Z,17.40
2023-03-30T16:20:30.463Z,17.40
2023-03-30T16:22:57.871Z,17.40
2023-03-30T16:25:41.617Z,17.40
2023-03-30T16:28:17.097Z,17.50
2023-03-30T16:30:47.621Z,17.50
2023-03-30T16:33:14.507Z,17.50
2023-03-30T16:35:41.563Z,17.60
2023-03-30T16:38:14.055Z,17.60
2023-03-30T16:40:44.183Z,17.70
2023-03-30T16:43:11.567Z,17.80
2023-03-30T16:45:38.545Z,17.90
2023-03-30T16:48:05.928Z,18.00
2023-03-30T16:50:41.270Z,18.00
2023-03-30T16:53:09.788Z,18.10
2023-03-30T16:55:38.726Z,18.10
2023-03-30T16:58:08.547Z,18.10
2023-03-30T17:00:42.774Z,18.20
2023-03-30T17:03:10.125Z,18.20
2023-03-30T17:05:37.650Z,18.20
2023-03-30T17:08:10.832Z,18.30
2023-03-30T17:10:40.872Z,18.40
2023-03-30T17:13:09.255Z,18.40
2023-03-30T17:15:38.626Z,18.40
2023-03-30T17:18:09.141Z,18.30
2023-03-30T17:20:42.386Z,18.20
2023-03-30T17:23:10.514Z,18.10
2023-03-30T17:25:39.848Z,17.90
2023-03-30T17:28:10.261Z,17.70
2023-03-30T17:30:40.508Z,17.60
2023-03-30T17:33:10.703Z,17.50
2023-03-30T17:35:38.609Z,17.30
2023-03-30T17:38:09.373Z,17.20
2023-03-30T17:40:40.838Z,17.10
2023-03-30T17:43:08.789Z,17.00
2023-03-30T17:45:37.236Z,17.00
2023-03-30T17:48:06.739Z,16.90
2023-03-30T17:50:43.441Z,16.80
2023-03-30T17:53:17.582Z,16.70
2023-03-30T17:55:47.439Z,16.70
2023-03-30T17:58:31.840Z,16.60
2023-03-30T18:01:01.398Z,16.60
2023-03-30T18:03:31.582Z,16.50
2023-03-30T18:06:00.631Z,16.40
2023-03-30T18:08:28.854Z,16.40
2023-03-30T18:11:00.722Z,16.40
2023-03-30T18:13:30.406Z,16.30
2023-03-30T18:15:59.765Z,16.30
2023-03-30T18:18:30.496Z,16.30
2023-03-30T18:21:02.475Z,16.30
2023-03-30T18:23:31.354Z,16.20
2023-03-30T18:25:58.241Z,16.20
2023-03-30T18:28:27.889Z,16.20
2023-03-30T18:31:00.734Z,16.20
2023-03-30T18:33:28.002Z,16.20
2023-03-30T18:35:56.894Z,16.20
2023-03-30T18:38:25.566Z,16.20
2023-03-30T18:40:57.420Z,16.20
2023-03-30T18:43:26.448Z,16.20
2023-03-30T18:45:54.479Z,16.10
2023-03-30T18:48:21.835Z,16.10
2023-03-30T18:50:53.945Z,16.10
2023-03-30T18:53:23.916Z,16.10
2023-03-30T18:55:54.204Z,16.10
2023-03-30T18:58:27.275Z,16.10
2023-03-30T19:00:55.734Z,16.10
2023-03-30T19:03:24.247Z,16.10
2023-03-30T19:05:51.580Z,16.10
2023-03-30T19:08:21.607Z,16.10
2023-03-30T19:10:52.210Z,16.10
2023-03-30T19:13:21.204Z,16.10
2023-03-30T19:15:50.432Z,16.10
2023-03-30T19:18:17.915Z,16.10
2023-03-30T19:20:44.933Z,16.10
2023-03-30T19:23:14.655Z,16.10
2023-03-30T19:25:43.355Z,16.10
2023-03-30T19:28:11.741Z,16.00
2023-03-30T19:30:39.838Z,16.00
2023-03-30T19:33:12.214Z,16.00
2023-03-30T19:35:44.224Z,16.10
2023-03-30T19:38:11.676Z,16.00
2023-03-30T19:40:40.417Z,16.00
2023-03-30T19:43:07.695Z,15.90
2023-03-30T19:45:34.682Z,15.90
2023-03-30T19:48:01.674Z,15.90
2023-03-30T19:50:30.230Z,15.80
2023-03-30T19:52:58.637Z,15.80
2023-03-30T19:55:25.783Z,15.70
2023-03-30T19:57:52.716Z,15.70
2023-03-30T20:00:21.943Z,15.60
2023-03-30T20:02:51.818Z,15.50
2023-03-30T20:05:20.940Z,15.50
2023-03-30T20:07:49.037Z,15.50
2023-03-30T20:10:21.126Z,15.40
2023-03-30T20:12:49.492Z,15.50
2023-03-30T20:15:17.346Z,15.40
2023-03-30T20:17:44.767Z,15.40
2023-03-30T20:20:16.982Z,15.40
2023-03-30T20:22:45.020Z,15.40
2023-03-30T20:25:14.186Z,15.30
2023-03-30T20:27:41.420Z,15.30
2023-03-30T20:30:09.654Z,15.30
2023-03-30T20:32:36.551Z,15.20
2023-03-30T20:35:05.184Z,15.20
2023-03-30T20:37:32.202Z,15.20
2023-03-30T20:40:03.535Z,15.20
2023-03-30T20:42:33.836Z,15.10
2023-03-30T20:45:01.210Z,15.10
2023-03-30T20:47:30.183Z,15.10
2023-03-30T20:49:58.262Z,15.10
2023-03-30T20:52:25.702Z,15.10
2023-03-30T20:54:52.763Z,15.10
2023-03-30T20:57:21.440Z,15.00
2023-03-30T20:59:49.947Z,15.00
2023-03-30T21:02:17.555Z,15.00
2023-03-30T21:04:44.826Z,15.00
2023-03-30T21:07:12.381Z,15.00
2023-03-30T21:09:39.741Z,15.00
2023-03-30T21:12:09.625Z,15.00
2023-03-30T21:14:36.696Z,14.90
2023-03-30T21:17:04.265Z,14.90
2023-03-30T21:19:31.270Z,14.90
2023-03-30T21:22:00.178Z,14.90
2023-03-30T21:24:27.496Z,14.90
2023-03-30T21:26:54.381Z,14.90
2023-03-30T21:29:22.592Z,14.90
2023-03-30T21:31:50.079Z,14.80
2023-03-30T21:34:18.643Z,14.80
2023-03-30T21:36:45.942Z,14.80
2023-03-30T21:39:13.036Z,14.80
2023-03-30T21:41:40.010Z,14.80
2023-03-30T21:44:07.613Z,14.80
2023-03-30T21:46:34.659Z,14.80
2023-03-30T21:49:01.567Z,14.80
2023-03-30T21:51:30.335Z,14.80
2023-03-30T21:53:58.396Z,14.70
2023-03-30T21:56:29.456Z,14.70
2023-03-30T21:58:56.942Z,14.70
2023-03-30T22:01:24.423Z,14.70
2023-03-30T22:03:52.911Z,14.70
2023-03-30T22:06:20.527Z,14.70
2023-03-30T22:08:47.445Z,14.70
2023-03-30T22:11:21.000Z,14.70
2023-03-30T22:13:48.993Z,14.70
2023-03-30T22:16:31.166Z,14.70
2023-03-30T22:18:58.069Z,14.60
2023-03-30T22:21:33.988Z,14.60
2023-03-30T22:24:02.918Z,14.50
2023-03-30T22:26:29.856Z,14.50
2023-03-30T22:28:57.126Z,14.40
2023-03-30T22:31:24.102Z,14.40
2023-03-30T22:33:52.837Z,14.30
2023-03-30T22:36:26.219Z,14.30
2023-03-30T22:38:53.348Z,14.30
2023-03-30T22:41:24.399Z,14.20
2023-03-30T22:43:57.014Z,14.20
2023-03-30T22:46:25.976Z,14.20
2023-03-30T22:48:55.334Z,14.20
2023-03-30T22:51:28.851Z,14.20
2023-03-30T22:53:58.243Z,14.10
2023-03-30T22:56:27.261Z,14.20
2023-03-30T22:58:54.261Z,14.10
2023-03-30T23:01:21.517Z,14.20
2023-03-30T23:03:48.721Z,14.10
2023-03-30T23:06:18.943Z,14.20
2023-03-30T23:08:48.295Z,14.20
2023-03-30T23:11:16.041Z,14.10
2023-03-30T23:13:42.949Z,14.20
2023-03-30T23:16:10.550Z,14.10
2023-03-30T23:18:37.577Z,14.10
2023-03-30T23:21:06.960Z,14.10
2023-03-30T23:23:36.234Z,14.10
2023-03-30T23:26:09.920Z,14.10
2023-03-30T23:28:40.301Z,14.10
2023-03-30T23:31:17.454Z,14.10
2023-03-30T23:33:44.643Z,14.10
2023-03-30T23:36:16.949Z,14.00
2023-03-30T23:38:44.400Z,14.00
2023-03-30T23:41:17.359Z,14.10
2023-03-30T23:43:44.471Z,14.10
2023-03-30T23:46:12.290Z,14.10
2023-03-30T23:48:39.833Z,14.00
2023-03-30T23:51:07.482Z,14.10
2023-03-30T23:53:34.488Z,14.00
2023-03-30T23:56:06.171Z,14.00
2023-03-30T23:58:33.389Z,14.00
